sensor_id;sensor_type;location;lat;lon;timestamp;P1;durP1;ratioP1;P2;durP2;ratioP2
22111;SDS011;11222;50.872;4.312;2022-12-26T00:02:13;15.50;;;11.27;;
22111;SDS011;11222;50.872;4.312;2022-12-26T00:04:39;16.40;;;12.38;;
22111;SDS011;11222;50.872;4.312;2022-12-26T00:07:04;14.82;;;11.10;;
22111;SDS011;11222;50.872;4.312;2022-12-26T00:09:31;15.13;;;10.95;;
22111;SDS011;11222;50.872;4.312;2022-12-26T00:11:57;16.27;;;11.43;;
22111;SDS011;11222;50.872;4.312;2022-12-26T00:14:23;15.93;;;11.35;;
22111;SDS011;11222;50.872;4.312;2022-12-26T00:16:48;15.68;;;11.70;;
22111;SDS011;11222;50.872;4.312;2022-12-26T00:19:14;14.27;;;10.68;;
22111;SDS011;11222;50.872;4.312;2022-12-26T00:21:40;14.82;;;11.00;;
22111;SDS011;11222;50.872;4.312;2022-12-26T00:24:06;13.75;;;10.70;;
22111;SDS011;11222;50.872;4.312;2022-12-26T00:26:33;14.60;;;10.93;;
22111;SDS011;11222;50.872;4.312;2022-12-26T00:29:00;15.77;;;11.93;;
22111;SDS011;11222;50.872;4.312;2022-12-26T00:31:27;14.77;;;11.30;;
22111;SDS011;11222;50.872;4.312;2022-12-26T00:33:56;14.68;;;11.27;;
22111;SDS011;11222;50.872;4.312;2022-12-26T00:36:26;15.35;;;10.30;;
22111;SDS011;11222;50.872;4.312;2022-12-26T00:38:54;14.18;;;10.55;;
22111;SDS011;11222;50.872;4.312;2022-12-26T00:41:20;13.55;;;10.15;;
22111;SDS011;11222;50.872;4.312;2022-12-26T00:43:46;12.85;;;10.13;;
22111;SDS011;11222;50.872;4.312;2022-12-26T00:46:13;12.63;;;10.30;;
22111;SDS011;11222;50.872;4.312;2022-12-26T00:48:39;15.88;;;10.35;;
22111;SDS011;11222;50.872;4.312;2022-12-26T00:51:05;13.40;;;10.02;;
22111;SDS011;11222;50.872;4.312;2022-12-26T00:53:30;13.32;;;10.18;;
22111;SDS011;11222;50.872;4.312;2022-12-26T00:55:57;13.40;;;10.07;;
22111;SDS011;11222;50.872;4.312;2022-12-26T00:58:23;14.80;;;10.10;;
22111;SDS011;11222;50.872;4.312;2022-12-26T01:00:49;13.27;;;9.77;;
22111;SDS011;11222;50.872;4.312;2022-12-26T01:03:16;12.48;;;9.80;;
22111;SDS011;11222;50.872;4.312;2022-12-26T01:05:42;13.40;;;10.25;;
22111;SDS011;11222;50.872;4.312;2022-12-26T01:08:09;12.90;;;9.75;;
22111;SDS011;11222;50.872;4.312;2022-12-26T01:10:35;14.40;;;9.68;;
22111;SDS011;11222;50.872;4.312;2022-12-26T01:13:04;12.00;;;9.43;;
22111;SDS011;11222;50.872;4.312;2022-12-26T01:15:29;12.75;;;9.77;;
22111;SDS011;11222;50.872;4.312;2022-12-26T01:17:56;12.02;;;9.60;;
22111;SDS011;11222;50.872;4.312;2022-12-26T01:20:24;12.85;;;10.35;;
22111;SDS011;11222;50.872;4.312;2022-12-26T01:22:50;14.32;;;10.18;;
22111;SDS011;11222;50.872;4.312;2022-12-26T01:25:16;14.30;;;10.75;;
22111;SDS011;11222;50.872;4.312;2022-12-26T01:27:42;14.50;;;11.25;;
22111;SDS011;11222;50.872;4.312;2022-12-26T01:30:07;18.00;;;12.35;;
22111;SDS011;11222;50.872;4.312;2022-12-26T01:32:34;19.85;;;13.90;;
22111;SDS011;11222;50.872;4.312;2022-12-26T01:34:59;21.38;;;12.77;;
22111;SDS011;11222;50.872;4.312;2022-12-26T01:37:25;18.17;;;12.23;;
22111;SDS011;11222;50.872;4.312;2022-12-26T01:39:51;19.20;;;13.82;;
22111;SDS011;11222;50.872;4.312;2022-12-26T01:42:17;21.25;;;14.10;;
22111;SDS011;11222;50.872;4.312;2022-12-26T01:44:57;24.08;;;15.82;;
22111;SDS011;11222;50.872;4.312;2022-12-26T01:47:24;21.77;;;15.27;;
22111;SDS011;11222;50.872;4.312;2022-12-26T01:50:02;21.73;;;15.07;;
22111;SDS011;11222;50.872;4.312;2022-12-26T01:52:35;23.02;;;15.00;;
22111;SDS011;11222;50.872;4.312;2022-12-26T01:55:07;21.27;;;14.75;;
22111;SDS011;11222;50.872;4.312;2022-12-26T01:57:37;21.35;;;14.65;;
22111;SDS011;11222;50.872;4.312;2022-12-26T02:00:09;18.50;;;13.57;;
22111;SDS011;11222;50.872;4.312;2022-12-26T02:02:36;17.50;;;12.60;;
22111;SDS011;11222;50.872;4.312;2022-12-26T02:05:25;15.35;;;11.98;;
22111;SDS011;11222;50.872;4.312;2022-12-26T02:07:59;16.83;;;12.40;;
22111;SDS011;11222;50.872;4.312;2022-12-26T02:10:37;16.30;;;12.50;;
22111;SDS011;11222;50.872;4.312;2022-12-26T02:13:07;19.48;;;11.95;;
22111;SDS011;11222;50.872;4.312;2022-12-26T02:15:35;16.38;;;11.48;;
22111;SDS011;11222;50.872;4.312;2022-12-26T02:18:01;14.48;;;11.00;;
22111;SDS011;11222;50.872;4.312;2022-12-26T02:20:28;14.35;;;10.30;;
22111;SDS011;11222;50.872;4.312;2022-12-26T02:34:10;10.48;;;8.23;;
22111;SDS011;11222;50.872;4.312;2022-12-26T02:42:52;9.43;;;7.90;;
22111;SDS011;11222;50.872;4.312;2022-12-26T02:56:58;6.38;;;5.28;;
22111;SDS011;11222;50.872;4.312;2022-12-26T02:59:49;6.32;;;5.18;;
22111;SDS011;11222;50.872;4.312;2022-12-26T03:03:02;7.47;;;5.53;;
22111;SDS011;11222;50.872;4.312;2022-12-26T03:05:55;5.25;;;4.75;;
22111;SDS011;11222;50.872;4.312;2022-12-26T03:11:36;5.35;;;4.43;;
22111;SDS011;11222;50.872;4.312;2022-12-26T03:14:32;4.97;;;4.47;;
22111;SDS011;11222;50.872;4.312;2022-12-26T03:17:02;4.63;;;4.13;;
22111;SDS011;11222;50.872;4.312;2022-12-26T03:19:49;4.43;;;3.95;;
22111;SDS011;11222;50.872;4.312;2022-12-26T03:22:35;4.88;;;4.15;;
22111;SDS011;11222;50.872;4.312;2022-12-26T03:25:12;5.97;;;4.80;;
22111;SDS011;11222;50.872;4.312;2022-12-26T03:28:05;6.78;;;4.35;;
22111;SDS011;11222;50.872;4.312;2022-12-26T03:30:31;6.20;;;4.13;;
22111;SDS011;11222;50.872;4.312;2022-12-26T03:33:12;6.30;;;4.80;;
22111;SDS011;11222;50.872;4.312;2022-12-26T03:36:00;5.57;;;4.57;;
22111;SDS011;11222;50.872;4.312;2022-12-26T03:41:33;5.95;;;5.03;;
22111;SDS011;11222;50.872;4.312;2022-12-26T03:44:41;7.10;;;5.25;;
22111;SDS011;11222;50.872;4.312;2022-12-26T03:47:43;6.43;;;5.25;;
22111;SDS011;11222;50.872;4.312;2022-12-26T03:50:31;6.38;;;4.78;;
22111;SDS011;11222;50.872;4.312;2022-12-26T03:59:29;6.55;;;4.65;;
22111;SDS011;11222;50.872;4.312;2022-12-26T04:02:18;6.93;;;5.25;;
22111;SDS011;11222;50.872;4.312;2022-12-26T04:05:04;7.13;;;4.72;;
22111;SDS011;11222;50.872;4.312;2022-12-26T04:07:55;7.40;;;5.10;;
22111;SDS011;11222;50.872;4.312;2022-12-26T04:10:44;5.18;;;4.40;;
22111;SDS011;11222;50.872;4.312;2022-12-26T04:16:37;5.78;;;4.10;;
22111;SDS011;11222;50.872;4.312;2022-12-26T04:22:52;4.85;;;4.20;;
22111;SDS011;11222;50.872;4.312;2022-12-26T04:26:12;6.85;;;3.92;;
22111;SDS011;11222;50.872;4.312;2022-12-26T04:29:00;7.28;;;4.47;;
22111;SDS011;11222;50.872;4.312;2022-12-26T04:31:47;6.32;;;4.05;;
22111;SDS011;11222;50.872;4.312;2022-12-26T04:34:42;5.10;;;4.03;;
22111;SDS011;11222;50.872;4.312;2022-12-26T04:37:33;5.35;;;4.43;;
22111;SDS011;11222;50.872;4.312;2022-12-26T04:40:23;6.28;;;4.68;;
22111;SDS011;11222;50.872;4.312;2022-12-26T04:43:12;6.68;;;4.75;;
22111;SDS011;11222;50.872;4.312;2022-12-26T04:45:57;4.90;;;4.32;;
22111;SDS011;11222;50.872;4.312;2022-12-26T04:48:24;6.80;;;3.90;;
22111;SDS011;11222;50.872;4.312;2022-12-26T04:51:09;5.10;;;4.00;;
22111;SDS011;11222;50.872;4.312;2022-12-26T04:53:35;5.10;;;3.95;;
22111;SDS011;11222;50.872;4.312;2022-12-26T04:56:00;9.63;;;4.03;;
22111;SDS011;11222;50.872;4.312;2022-12-26T04:58:26;5.30;;;3.60;;
22111;SDS011;11222;50.872;4.312;2022-12-26T05:00:52;4.75;;;3.70;;
22111;SDS011;11222;50.872;4.312;2022-12-26T05:03:38;4.57;;;3.80;;
22111;SDS011;11222;50.872;4.312;2022-12-26T05:06:22;6.38;;;3.40;;
22111;SDS011;11222;50.872;4.312;2022-12-26T05:09:07;4.68;;;3.47;;
22111;SDS011;11222;50.872;4.312;2022-12-26T05:11:53;4.80;;;3.70;;
22111;SDS011;11222;50.872;4.312;2022-12-26T05:14:19;5.00;;;3.50;;
22111;SDS011;11222;50.872;4.312;2022-12-26T05:16:45;5.07;;;3.00;;
22111;SDS011;11222;50.872;4.312;2022-12-26T05:19:29;3.85;;;2.97;;
22111;SDS011;11222;50.872;4.312;2022-12-26T05:22:13;3.40;;;2.72;;
22111;SDS011;11222;50.872;4.312;2022-12-26T05:24:58;5.60;;;3.03;;
22111;SDS011;11222;50.872;4.312;2022-12-26T05:27:42;3.75;;;3.20;;
22111;SDS011;11222;50.872;4.312;2022-12-26T05:30:27;4.00;;;3.10;;
22111;SDS011;11222;50.872;4.312;2022-12-26T05:32:53;5.05;;;2.97;;
22111;SDS011;11222;50.872;4.312;2022-12-26T05:35:37;3.95;;;3.17;;
22111;SDS011;11222;50.872;4.312;2022-12-26T05:38:03;3.90;;;2.88;;
22111;SDS011;11222;50.872;4.312;2022-12-26T05:40:29;3.95;;;2.70;;
22111;SDS011;11222;50.872;4.312;2022-12-26T05:42:56;3.92;;;3.13;;
22111;SDS011;11222;50.872;4.312;2022-12-26T05:45:21;4.82;;;2.90;;
22111;SDS011;11222;50.872;4.312;2022-12-26T05:47:47;3.58;;;3.20;;
22111;SDS011;11222;50.872;4.312;2022-12-26T05:50:13;3.65;;;3.10;;
22111;SDS011;11222;50.872;4.312;2022-12-26T05:52:39;3.95;;;3.00;;
22111;SDS011;11222;50.872;4.312;2022-12-26T05:55:05;4.18;;;3.10;;
22111;SDS011;11222;50.872;4.312;2022-12-26T05:57:30;4.78;;;3.35;;
22111;SDS011;11222;50.872;4.312;2022-12-26T05:59:56;4.45;;;3.28;;
22111;SDS011;11222;50.872;4.312;2022-12-26T06:02:22;3.30;;;2.92;;
22111;SDS011;11222;50.872;4.312;2022-12-26T06:04:48;4.40;;;3.00;;
22111;SDS011;11222;50.872;4.312;2022-12-26T06:07:13;4.45;;;2.90;;
22111;SDS011;11222;50.872;4.312;2022-12-26T06:09:39;4.93;;;3.05;;
22111;SDS011;11222;50.872;4.312;2022-12-26T06:12:05;4.95;;;2.65;;
22111;SDS011;11222;50.872;4.312;2022-12-26T06:14:30;4.78;;;2.63;;
22111;SDS011;11222;50.872;4.312;2022-12-26T06:16:56;3.20;;;2.85;;
22111;SDS011;11222;50.872;4.312;2022-12-26T06:19:22;3.08;;;2.70;;
22111;SDS011;11222;50.872;4.312;2022-12-26T06:21:47;2.78;;;2.50;;
22111;SDS011;11222;50.872;4.312;2022-12-26T06:24:13;2.72;;;2.38;;
22111;SDS011;11222;50.872;4.312;2022-12-26T06:26:39;3.30;;;2.40;;
22111;SDS011;11222;50.872;4.312;2022-12-26T06:29:05;4.20;;;2.38;;
22111;SDS011;11222;50.872;4.312;2022-12-26T06:31:31;3.15;;;2.63;;
22111;SDS011;11222;50.872;4.312;2022-12-26T06:33:57;3.30;;;2.30;;
22111;SDS011;11222;50.872;4.312;2022-12-26T06:36:24;2.67;;;2.10;;
22111;SDS011;11222;50.872;4.312;2022-12-26T06:38:52;2.78;;;2.20;;
22111;SDS011;11222;50.872;4.312;2022-12-26T06:41:19;2.38;;;2.00;;
22111;SDS011;11222;50.872;4.312;2022-12-26T06:43:46;3.85;;;2.28;;
22111;SDS011;11222;50.872;4.312;2022-12-26T06:46:13;2.72;;;2.03;;
22111;SDS011;11222;50.872;4.312;2022-12-26T06:48:43;4.88;;;2.10;;
22111;SDS011;11222;50.872;4.312;2022-12-26T06:51:10;3.40;;;2.10;;
22111;SDS011;11222;50.872;4.312;2022-12-26T06:53:37;5.25;;;1.90;;
22111;SDS011;11222;50.872;4.312;2022-12-26T06:56:04;3.17;;;1.90;;
22111;SDS011;11222;50.872;4.312;2022-12-26T06:58:31;2.10;;;1.90;;
22111;SDS011;11222;50.872;4.312;2022-12-26T07:01:02;3.47;;;2.00;;
22111;SDS011;11222;50.872;4.312;2022-12-26T07:03:32;2.75;;;2.08;;
22111;SDS011;11222;50.872;4.312;2022-12-26T07:06:05;4.75;;;1.60;;
22111;SDS011;11222;50.872;4.312;2022-12-26T07:08:35;4.05;;;2.10;;
22111;SDS011;11222;50.872;4.312;2022-12-26T07:11:01;4.25;;;1.73;;
22111;SDS011;11222;50.872;4.312;2022-12-26T07:13:27;2.67;;;2.15;;
22111;SDS011;11222;50.872;4.312;2022-12-26T07:15:52;3.42;;;1.85;;
22111;SDS011;11222;50.872;4.312;2022-12-26T07:18:18;3.25;;;1.98;;
22111;SDS011;11222;50.872;4.312;2022-12-26T07:20:44;4.63;;;2.03;;
22111;SDS011;11222;50.872;4.312;2022-12-26T07:23:10;4.22;;;1.90;;
22111;SDS011;11222;50.872;4.312;2022-12-26T07:25:36;2.88;;;1.75;;
22111;SDS011;11222;50.872;4.312;2022-12-26T07:28:02;7.78;;;2.10;;
22111;SDS011;11222;50.872;4.312;2022-12-26T07:30:28;2.50;;;1.60;;
22111;SDS011;11222;50.872;4.312;2022-12-26T07:32:54;4.85;;;1.83;;
22111;SDS011;11222;50.872;4.312;2022-12-26T07:35:20;3.75;;;1.70;;
22111;SDS011;11222;50.872;4.312;2022-12-26T07:37:45;2.03;;;1.60;;
22111;SDS011;11222;50.872;4.312;2022-12-26T07:40:11;2.63;;;1.60;;
22111;SDS011;11222;50.872;4.312;2022-12-26T07:42:37;3.40;;;1.50;;
22111;SDS011;11222;50.872;4.312;2022-12-26T07:45:03;3.85;;;1.73;;
22111;SDS011;11222;50.872;4.312;2022-12-26T07:47:29;4.05;;;1.60;;
22111;SDS011;11222;50.872;4.312;2022-12-26T07:49:56;4.85;;;1.70;;
22111;SDS011;11222;50.872;4.312;2022-12-26T07:52:22;3.53;;;1.70;;
22111;SDS011;11222;50.872;4.312;2022-12-26T07:54:47;4.75;;;1.65;;
22111;SDS011;11222;50.872;4.312;2022-12-26T07:57:13;1.92;;;1.60;;
22111;SDS011;11222;50.872;4.312;2022-12-26T07:59:39;3.42;;;1.80;;
22111;SDS011;11222;50.872;4.312;2022-12-26T08:02:05;3.47;;;1.67;;
22111;SDS011;11222;50.872;4.312;2022-12-26T08:04:31;2.75;;;1.50;;
22111;SDS011;11222;50.872;4.312;2022-12-26T08:06:57;5.25;;;1.60;;
22111;SDS011;11222;50.872;4.312;2022-12-26T08:09:23;7.80;;;2.00;;
22111;SDS011;11222;50.872;4.312;2022-12-26T08:11:49;4.28;;;1.70;;
22111;SDS011;11222;50.872;4.312;2022-12-26T08:14:14;6.80;;;2.08;;
22111;SDS011;11222;50.872;4.312;2022-12-26T08:16:41;4.00;;;1.70;;
22111;SDS011;11222;50.872;4.312;2022-12-26T08:19:08;6.53;;;1.75;;
22111;SDS011;11222;50.872;4.312;2022-12-26T08:21:34;3.33;;;1.77;;
22111;SDS011;11222;50.872;4.312;2022-12-26T08:24:00;8.32;;;1.90;;
22111;SDS011;11222;50.872;4.312;2022-12-26T08:26:26;3.75;;;1.80;;
22111;SDS011;11222;50.872;4.312;2022-12-26T08:28:53;5.63;;;1.80;;
22111;SDS011;11222;50.872;4.312;2022-12-26T08:31:20;7.45;;;2.00;;
22111;SDS011;11222;50.872;4.312;2022-12-26T08:33:46;6.93;;;1.98;;
22111;SDS011;11222;50.872;4.312;2022-12-26T08:36:12;3.00;;;2.00;;
22111;SDS011;11222;50.872;4.312;2022-12-26T08:38:41;4.90;;;2.10;;
22111;SDS011;11222;50.872;4.312;2022-12-26T08:41:07;4.25;;;2.10;;
22111;SDS011;11222;50.872;4.312;2022-12-26T08:43:33;5.43;;;2.00;;
22111;SDS011;11222;50.872;4.312;2022-12-26T08:46:03;9.35;;;2.47;;
22111;SDS011;11222;50.872;4.312;2022-12-26T08:48:35;6.75;;;1.90;;
22111;SDS011;11222;50.872;4.312;2022-12-26T08:51:03;2.83;;;1.83;;
22111;SDS011;11222;50.872;4.312;2022-12-26T08:53:31;10.60;;;2.10;;
22111;SDS011;11222;50.872;4.312;2022-12-26T08:55:59;5.40;;;2.00;;
22111;SDS011;11222;50.872;4.312;2022-12-26T08:58:26;7.07;;;3.80;;
22111;SDS011;11222;50.872;4.312;2022-12-26T09:00:52;3.55;;;1.85;;
22111;SDS011;11222;50.872;4.312;2022-12-26T09:03:18;5.57;;;1.95;;
22111;SDS011;11222;50.872;4.312;2022-12-26T09:05:44;5.63;;;2.50;;
22111;SDS011;11222;50.872;4.312;2022-12-26T09:08:10;5.05;;;2.63;;
22111;SDS011;11222;50.872;4.312;2022-12-26T09:10:37;5.63;;;2.05;;
22111;SDS011;11222;50.872;4.312;2022-12-26T09:13:03;4.75;;;2.05;;
22111;SDS011;11222;50.872;4.312;2022-12-26T09:15:28;5.72;;;2.20;;
22111;SDS011;11222;50.872;4.312;2022-12-26T09:17:54;7.55;;;2.13;;
22111;SDS011;11222;50.872;4.312;2022-12-26T09:20:20;3.88;;;1.92;;
22111;SDS011;11222;50.872;4.312;2022-12-26T09:22:46;7.13;;;2.33;;
22111;SDS011;11222;50.872;4.312;2022-12-26T09:25:14;11.40;;;2.90;;
22111;SDS011;11222;50.872;4.312;2022-12-26T09:27:41;5.97;;;2.53;;
22111;SDS011;11222;50.872;4.312;2022-12-26T09:30:06;8.10;;;2.47;;
22111;SDS011;11222;50.872;4.312;2022-12-26T09:32:33;6.25;;;2.03;;
22111;SDS011;11222;50.872;4.312;2022-12-26T09:35:00;8.05;;;2.30;;
22111;SDS011;11222;50.872;4.312;2022-12-26T09:37:26;7.03;;;2.15;;
22111;SDS011;11222;50.872;4.312;2022-12-26T09:39:52;7.97;;;3.47;;
22111;SDS011;11222;50.872;4.312;2022-12-26T09:45:02;9.55;;;2.72;;
22111;SDS011;11222;50.872;4.312;2022-12-26T09:47:36;6.32;;;2.17;;
22111;SDS011;11222;50.872;4.312;2022-12-26T09:50:32;8.00;;;2.03;;
22111;SDS011;11222;50.872;4.312;2022-12-26T09:53:04;4.75;;;1.90;;
22111;SDS011;11222;50.872;4.312;2022-12-26T09:55:47;5.28;;;2.10;;
22111;SDS011;11222;50.872;4.312;2022-12-26T10:01:09;5.60;;;2.80;;
22111;SDS011;11222;50.872;4.312;2022-12-26T10:03:42;9.50;;;2.35;;
22111;SDS011;11222;50.872;4.312;2022-12-26T10:06:16;9.40;;;2.45;;
22111;SDS011;11222;50.872;4.312;2022-12-26T10:14:43;5.97;;;2.35;;
22111;SDS011;11222;50.872;4.312;2022-12-26T10:17:20;5.45;;;2.30;;
22111;SDS011;11222;50.872;4.312;2022-12-26T10:20:02;15.57;;;3.25;;
22111;SDS011;11222;50.872;4.312;2022-12-26T10:25:44;7.85;;;2.60;;
22111;SDS011;11222;50.872;4.312;2022-12-26T10:28:22;7.00;;;3.00;;
22111;SDS011;11222;50.872;4.312;2022-12-26T10:30:58;7.18;;;2.25;;
22111;SDS011;11222;50.872;4.312;2022-12-26T10:33:32;5.55;;;2.20;;
22111;SDS011;11222;50.872;4.312;2022-12-26T10:36:04;7.07;;;2.17;;
22111;SDS011;11222;50.872;4.312;2022-12-26T10:38:38;9.23;;;2.65;;
22111;SDS011;11222;50.872;4.312;2022-12-26T10:41:41;7.18;;;2.50;;
22111;SDS011;11222;50.872;4.312;2022-12-26T10:44:07;6.38;;;2.30;;
22111;SDS011;11222;50.872;4.312;2022-12-26T10:49:25;4.40;;;2.20;;
22111;SDS011;11222;50.872;4.312;2022-12-26T10:51:52;10.15;;;2.83;;
22111;SDS011;11222;50.872;4.312;2022-12-26T10:54:20;6.50;;;2.58;;
22111;SDS011;11222;50.872;4.312;2022-12-26T10:56:48;6.75;;;2.63;;
22111;SDS011;11222;50.872;4.312;2022-12-26T10:59:16;8.00;;;2.22;;
22111;SDS011;11222;50.872;4.312;2022-12-26T11:01:45;10.25;;;3.28;;
22111;SDS011;11222;50.872;4.312;2022-12-26T11:04:15;13.82;;;3.10;;
22111;SDS011;11222;50.872;4.312;2022-12-26T11:06:50;7.25;;;2.22;;
22111;SDS011;11222;50.872;4.312;2022-12-26T11:12:36;5.13;;;1.83;;
22111;SDS011;11222;50.872;4.312;2022-12-26T11:15:16;6.50;;;1.42;;
22111;SDS011;11222;50.872;4.312;2022-12-26T11:17:43;5.72;;;1.70;;
22111;SDS011;11222;50.872;4.312;2022-12-26T11:22:39;3.17;;;1.73;;
22111;SDS011;11222;50.872;4.312;2022-12-26T11:27:42;5.05;;;1.85;;
22111;SDS011;11222;50.872;4.312;2022-12-26T11:32:39;5.55;;;1.65;;
22111;SDS011;11222;50.872;4.312;2022-12-26T11:35:13;6.47;;;1.70;;
22111;SDS011;11222;50.872;4.312;2022-12-26T11:37:45;8.48;;;1.90;;
22111;SDS011;11222;50.872;4.312;2022-12-26T11:40:16;9.07;;;2.05;;
22111;SDS011;11222;50.872;4.312;2022-12-26T11:42:48;8.52;;;2.05;;
22111;SDS011;11222;50.872;4.312;2022-12-26T11:45:19;7.00;;;1.95;;
22111;SDS011;11222;50.872;4.312;2022-12-26T11:47:47;8.63;;;2.22;;
22111;SDS011;11222;50.872;4.312;2022-12-26T11:50:14;8.15;;;2.10;;
22111;SDS011;11222;50.872;4.312;2022-12-26T11:57:59;6.47;;;2.22;;
22111;SDS011;11222;50.872;4.312;2022-12-26T12:03:15;6.18;;;1.85;;
22111;SDS011;11222;50.872;4.312;2022-12-26T12:14:25;9.95;;;2.15;;
22111;SDS011;11222;50.872;4.312;2022-12-26T12:22:40;6.10;;;2.03;;
22111;SDS011;11222;50.872;4.312;2022-12-26T12:33:27;6.22;;;2.70;;
22111;SDS011;11222;50.872;4.312;2022-12-26T12:36:30;6.53;;;2.28;;
22111;SDS011;11222;50.872;4.312;2022-12-26T12:39:16;9.10;;;3.17;;
22111;SDS011;11222;50.872;4.312;2022-12-26T12:41:58;15.07;;;3.58;;
22111;SDS011;11222;50.872;4.312;2022-12-26T12:47:16;9.02;;;2.33;;
22111;SDS011;11222;50.872;4.312;2022-12-26T12:53:10;6.90;;;2.25;;
22111;SDS011;11222;50.872;4.312;2022-12-26T12:55:53;6.32;;;2.30;;
22111;SDS011;11222;50.872;4.312;2022-12-26T13:01:14;7.28;;;2.38;;
22111;SDS011;11222;50.872;4.312;2022-12-26T13:06:23;10.73;;;2.40;;
22111;SDS011;11222;50.872;4.312;2022-12-26T13:11:25;9.25;;;2.28;;
22111;SDS011;11222;50.872;4.312;2022-12-26T13:16:31;8.93;;;2.47;;
22111;SDS011;11222;50.872;4.312;2022-12-26T13:19:08;8.30;;;2.22;;
22111;SDS011;11222;50.872;4.312;2022-12-26T13:21:59;9.45;;;2.25;;
22111;SDS011;11222;50.872;4.312;2022-12-26T13:24:33;10.18;;;2.63;;
22111;SDS011;11222;50.872;4.312;2022-12-26T13:27:05;5.97;;;1.98;;
22111;SDS011;11222;50.872;4.312;2022-12-26T13:29:43;9.05;;;2.15;;
22111;SDS011;11222;50.872;4.312;2022-12-26T13:34:54;7.78;;;2.13;;
22111;SDS011;11222;50.872;4.312;2022-12-26T13:40:05;4.53;;;1.65;;
22111;SDS011;11222;50.872;4.312;2022-12-26T13:42:54;8.02;;;2.05;;
22111;SDS011;11222;50.872;4.312;2022-12-26T13:45:51;9.20;;;2.35;;
22111;SDS011;11222;50.872;4.312;2022-12-26T13:58:49;9.40;;;2.33;;
22111;SDS011;11222;50.872;4.312;2022-12-26T14:06:59;13.13;;;2.85;;
22111;SDS011;11222;50.872;4.312;2022-12-26T14:09:56;14.07;;;2.45;;
22111;SDS011;11222;50.872;4.312;2022-12-26T14:12:49;12.40;;;2.90;;
22111;SDS011;11222;50.872;4.312;2022-12-26T14:18:09;8.10;;;2.47;;
22111;SDS011;11222;50.872;4.312;2022-12-26T14:26:46;9.55;;;2.15;;
22111;SDS011;11222;50.872;4.312;2022-12-26T14:29:20;12.48;;;2.40;;
22111;SDS011;11222;50.872;4.312;2022-12-26T14:37:36;7.68;;;2.58;;
22111;SDS011;11222;50.872;4.312;2022-12-26T14:39:56;6.47;;;2.22;;
22111;SDS011;11222;50.872;4.312;2022-12-26T14:42:59;14.60;;;2.45;;
22111;SDS011;11222;50.872;4.312;2022-12-26T14:50:47;6.93;;;2.28;;
22111;SDS011;11222;50.872;4.312;2022-12-26T14:58:47;7.35;;;2.22;;
22111;SDS011;11222;50.872;4.312;2022-12-26T15:17:03;8.40;;;2.25;;
22111;SDS011;11222;50.872;4.312;2022-12-26T15:27:50;10.77;;;2.33;;
22111;SDS011;11222;50.872;4.312;2022-12-26T15:36:21;9.00;;;2.58;;
22111;SDS011;11222;50.872;4.312;2022-12-26T15:38:57;7.55;;;2.30;;
22111;SDS011;11222;50.872;4.312;2022-12-26T15:41:45;8.15;;;3.15;;
22111;SDS011;11222;50.872;4.312;2022-12-26T15:46:53;9.18;;;2.92;;
22111;SDS011;11222;50.872;4.312;2022-12-26T15:52:23;9.70;;;3.53;;
22111;SDS011;11222;50.872;4.312;2022-12-26T15:57:29;12.50;;;6.70;;
22111;SDS011;11222;50.872;4.312;2022-12-26T16:00:21;5.80;;;2.90;;
22111;SDS011;11222;50.872;4.312;2022-12-26T16:10:36;7.85;;;4.25;;
22111;SDS011;11222;50.872;4.312;2022-12-26T16:15:45;13.32;;;3.88;;
22111;SDS011;11222;50.872;4.312;2022-12-26T16:18:18;8.38;;;3.40;;
22111;SDS011;11222;50.872;4.312;2022-12-26T16:20:45;10.90;;;3.15;;
22111;SDS011;11222;50.872;4.312;2022-12-26T16:23:34;10.60;;;3.38;;
22111;SDS011;11222;50.872;4.312;2022-12-26T16:26:02;11.90;;;3.75;;
22111;SDS011;11222;50.872;4.312;2022-12-26T16:28:39;12.27;;;3.85;;
22111;SDS011;11222;50.872;4.312;2022-12-26T16:31:06;10.68;;;3.58;;
22111;SDS011;11222;50.872;4.312;2022-12-26T16:33:37;15.57;;;3.88;;
22111;SDS011;11222;50.872;4.312;2022-12-26T16:36:06;12.50;;;4.43;;
22111;SDS011;11222;50.872;4.312;2022-12-26T16:38:33;11.45;;;3.92;;
22111;SDS011;11222;50.872;4.312;2022-12-26T16:40:59;12.98;;;5.50;;
22111;SDS011;11222;50.872;4.312;2022-12-26T16:43:41;14.65;;;5.20;;
22111;SDS011;11222;50.872;4.312;2022-12-26T16:46:08;15.77;;;6.20;;
22111;SDS011;11222;50.872;4.312;2022-12-26T16:48:36;9.73;;;4.13;;
22111;SDS011;11222;50.872;4.312;2022-12-26T16:54:42;16.02;;;6.40;;
22111;SDS011;11222;50.872;4.312;2022-12-26T17:02:29;16.42;;;5.45;;
22111;SDS011;11222;50.872;4.312;2022-12-26T17:05:02;8.75;;;4.65;;
22111;SDS011;11222;50.872;4.312;2022-12-26T17:07:30;10.02;;;4.03;;
22111;SDS011;11222;50.872;4.312;2022-12-26T17:09:59;10.68;;;3.70;;
22111;SDS011;11222;50.872;4.312;2022-12-26T17:12:34;12.80;;;4.38;;
22111;SDS011;11222;50.872;4.312;2022-12-26T17:15:03;18.27;;;6.05;;
22111;SDS011;11222;50.872;4.312;2022-12-26T17:17:31;12.55;;;4.60;;
22111;SDS011;11222;50.872;4.312;2022-12-26T17:20:41;11.63;;;4.00;;
22111;SDS011;11222;50.872;4.312;2022-12-26T17:22:54;16.83;;;4.45;;
22111;SDS011;11222;50.872;4.312;2022-12-26T17:25:22;10.55;;;4.35;;
22111;SDS011;11222;50.872;4.312;2022-12-26T17:30:42;16.70;;;4.45;;
22111;SDS011;11222;50.872;4.312;2022-12-26T17:33:16;16.77;;;4.70;;
22111;SDS011;11222;50.872;4.312;2022-12-26T17:35:49;13.95;;;3.78;;
22111;SDS011;11222;50.872;4.312;2022-12-26T17:38:31;15.30;;;4.57;;
22111;SDS011;11222;50.872;4.312;2022-12-26T17:40:59;12.18;;;3.88;;
22111;SDS011;11222;50.872;4.312;2022-12-26T17:43:31;12.52;;;4.22;;
22111;SDS011;11222;50.872;4.312;2022-12-26T17:46:02;14.75;;;4.00;;
22111;SDS011;11222;50.872;4.312;2022-12-26T17:48:29;14.02;;;4.10;;
22111;SDS011;11222;50.872;4.312;2022-12-26T17:50:57;10.52;;;4.50;;
22111;SDS011;11222;50.872;4.312;2022-12-26T17:53:32;9.45;;;4.05;;
22111;SDS011;11222;50.872;4.312;2022-12-26T17:56:09;12.23;;;4.38;;
22111;SDS011;11222;50.872;4.312;2022-12-26T17:58:39;15.32;;;4.30;;
22111;SDS011;11222;50.872;4.312;2022-12-26T18:01:05;10.98;;;4.32;;
22111;SDS011;11222;50.872;4.312;2022-12-26T18:03:31;14.05;;;5.82;;
22111;SDS011;11222;50.872;4.312;2022-12-26T18:05:56;11.48;;;4.85;;
22111;SDS011;11222;50.872;4.312;2022-12-26T18:10:54;15.88;;;9.60;;
22111;SDS011;11222;50.872;4.312;2022-12-26T18:13:20;10.13;;;4.55;;
22111;SDS011;11222;50.872;4.312;2022-12-26T18:15:47;16.98;;;5.82;;
22111;SDS011;11222;50.872;4.312;2022-12-26T18:18:35;12.82;;;4.60;;
22111;SDS011;11222;50.872;4.312;2022-12-26T18:20:59;14.25;;;7.22;;
22111;SDS011;11222;50.872;4.312;2022-12-26T18:23:26;9.40;;;4.57;;
22111;SDS011;11222;50.872;4.312;2022-12-26T18:25:52;13.60;;;5.93;;
22111;SDS011;11222;50.872;4.312;2022-12-26T18:28:19;18.75;;;8.10;;
22111;SDS011;11222;50.872;4.312;2022-12-26T18:30:45;15.48;;;6.75;;
22111;SDS011;11222;50.872;4.312;2022-12-26T18:33:11;10.93;;;4.90;;
22111;SDS011;11222;50.872;4.312;2022-12-26T18:35:41;12.02;;;5.45;;
22111;SDS011;11222;50.872;4.312;2022-12-26T18:38:09;15.32;;;5.28;;
22111;SDS011;11222;50.872;4.312;2022-12-26T18:40:43;15.30;;;4.88;;
22111;SDS011;11222;50.872;4.312;2022-12-26T18:43:12;12.35;;;4.70;;
22111;SDS011;11222;50.872;4.312;2022-12-26T18:45:38;16.38;;;4.95;;
22111;SDS011;11222;50.872;4.312;2022-12-26T18:48:06;14.02;;;4.63;;
22111;SDS011;11222;50.872;4.312;2022-12-26T18:50:35;13.23;;;5.43;;
22111;SDS011;11222;50.872;4.312;2022-12-26T18:53:01;8.65;;;4.55;;
22111;SDS011;11222;50.872;4.312;2022-12-26T18:55:27;17.15;;;6.03;;
22111;SDS011;11222;50.872;4.312;2022-12-26T18:57:53;8.32;;;4.40;;
22111;SDS011;11222;50.872;4.312;2022-12-26T19:00:19;15.95;;;5.88;;
22111;SDS011;11222;50.872;4.312;2022-12-26T19:02:46;12.32;;;5.22;;